Time;durP1;ratioP1;P1;durP2;ratioP2;P2;SDS_P1;SDS_P2;PMS_P1;PMS_P2;Temp;Humidity;BMP_temperature;BMP_pressure;BME280_temperature;BME280_humidity;BME280_pressure;Samples;Min_cycle;Max_cycle;Signal;HPM_P1;HPM_P2
2022/12/10 00:02:01;;;;;;;49.03;24.10;;;;;;;;;;5059971;28;20059;-71
2022/12/10 00:04:27;;;;;;;52.08;25.17;;;;;;;;;;5039909;28;20048;-71
2022/12/10 00:06:53;;;;;;;55.05;22.75;;;;;;;;;;5056566;28;20175;-71
2022/12/10 00:09:20;;;;;;;52.80;25.70;;;;;;;;;;5058007;28;20048;-70
2022/12/10 00:11:46;;;;;;;50.05;24.30;;;;;;;;;;5039069;28;20067;-71
2022/12/10 00:14:13;;;;;;;57.75;27.58;;;;;;;;;;5026875;28;20972;-70
2022/12/10 00:16:39;;;;;;;57.50;26.65;;;;;;;;;;5058570;28;20040;-70
2022/12/10 00:19:06;;;;;;;52.60;25.65;;;;;;;;;;5061406;28;20127;-71
2022/12/10 00:21:33;;;;;;;52.28;24.20;;;;;;;;;;5039748;28;20047;-70
2022/12/10 00:24:00;;;;;;;56.90;25.95;;;;;;;;;;5042139;28;20128;-70
2022/12/10 00:26:36;;;;;;;57.08;24.45;;;;;;;;;;5042442;28;20059;-70
2022/12/10 00:29:06;;;;;;;47.58;24.20;;;;;;;;;;5061369;28;20048;-70
2022/12/10 00:31:33;;;;;;;58.65;27.58;;;;;;;;;;5058468;28;20048;-70
2022/12/10 00:34:01;;;;;;;50.28;23.75;;;;;;;;;;5061209;28;20558;-70
2022/12/10 00:36:29;;;;;;;58.92;26.33;;;;;;;;;;5060587;28;20047;-70
2022/12/10 00:38:55;;;;;;;54.28;25.98;;;;;;;;;;5058479;28;20072;-70
2022/12/10 00:41:21;;;;;;;54.80;25.85;;;;;;;;;;5051203;28;20117;-70
2022/12/10 00:43:47;;;;;;;54.65;27.05;;;;;;;;;;5050278;28;20139;-70
2022/12/10 00:46:14;;;;;;;54.30;25.20;;;;;;;;;;5050552;28;20080;-70
2022/12/10 00:48:41;;;;;;;53.58;27.05;;;;;;;;;;5055158;28;20052;-70
2022/12/10 00:51:33;;;;;;;53.90;27.05;;;;;;;;;;5051373;28;20095;-70
2022/12/10 00:53:59;;;;;;;64.15;29.20;;;;;;;;;;5016173;28;20052;-70
2022/12/10 00:56:27;;;;;;;58.22;26.50;;;;;;;;;;5057232;28;20044;-70
2022/12/10 00:58:53;;;;;;;61.40;27.70;;;;;;;;;;5054108;28;20059;-70
2022/12/10 01:01:39;;;;;;;59.15;27.88;;;;;;;;;;5050809;28;20184;-70
2022/12/10 01:04:07;;;;;;;55.75;24.90;;;;;;;;;;5015554;28;20102;-70
2022/12/10 01:06:34;;;;;;;59.08;27.00;;;;;;;;;;5051373;28;20053;-70
2022/12/10 01:09:02;;;;;;;61.33;26.65;;;;;;;;;;5037358;28;20097;-70
2022/12/10 01:11:32;;;;;;;60.42;27.92;;;;;;;;;;5015406;28;20078;-70
2022/12/10 01:13:59;;;;;;;60.40;26.17;;;;;;;;;;5052656;28;20163;-70
2022/12/10 01:16:25;;;;;;;64.63;29.60;;;;;;;;;;5029288;28;20135;-70
2022/12/10 01:18:55;;;;;;;57.00;25.90;;;;;;;;;;5051445;28;20061;-70
2022/12/10 01:21:21;;;;;;;54.65;26.08;;;;;;;;;;5041482;28;20055;-70
2022/12/10 01:23:48;;;;;;;58.90;26.92;;;;;;;;;;5061691;28;22295;-70
2022/12/10 01:26:16;;;;;;;57.90;26.80;;;;;;;;;;5032119;28;20052;-70
2022/12/10 01:28:42;;;;;;;58.83;26.70;;;;;;;;;;5026583;28;20190;-70
2022/12/10 01:31:13;;;;;;;54.15;26.48;;;;;;;;;;5039428;28;20049;-70
2022/12/10 01:33:40;;;;;;;63.50;28.83;;;;;;;;;;5061750;28;21230;-70
2022/12/10 01:36:07;;;;;;;59.85;29.42;;;;;;;;;;5042533;28;20040;-70
2022/12/10 01:38:34;;;;;;;64.45;30.15;;;;;;;;;;5031446;28;20059;-70
2022/12/10 01:41:01;;;;;;;61.20;28.95;;;;;;;;;;5033347;28;20157;-70
2022/12/10 01:43:27;;;;;;;64.43;28.92;;;;;;;;;;5042233;28;20178;-70
2022/12/10 01:45:54;;;;;;;61.53;28.80;;;;;;;;;;5058140;28;20556;-70
2022/12/10 01:48:20;;;;;;;62.75;29.23;;;;;;;;;;5059266;28;20048;-70
2022/12/10 01:50:46;;;;;;;67.38;30.00;;;;;;;;;;5059084;28;20186;-70
2022/12/10 01:53:14;;;;;;;58.50;28.63;;;;;;;;;;5037881;28;20069;-70
2022/12/10 01:55:41;;;;;;;66.75;28.85;;;;;;;;;;5035898;28;20052;-70
2022/12/10 01:58:08;;;;;;;57.35;28.70;;;;;;;;;;5037651;28;20055;-70
2022/12/10 02:00:35;;;;;;;58.88;27.50;;;;;;;;;;5060657;28;20688;-70
2022/12/10 02:03:06;;;;;;;60.00;27.95;;;;;;;;;;5048071;28;20071;-71
2022/12/10 02:05:44;;;;;;;64.03;28.20;;;;;;;;;;5039084;28;20413;-71
2022/12/10 02:08:29;;;;;;;63.75;29.92;;;;;;;;;;5044660;28;20052;-71
2022/12/10 02:11:16;;;;;;;67.80;30.40;;;;;;;;;;5038168;28;21866;-71
2022/12/10 02:14:06;;;;;;;60.40;28.88;;;;;;;;;;5026116;28;20048;-71
2022/12/10 02:16:38;;;;;;;71.40;30.45;;;;;;;;;;5040882;28;20507;-71
2022/12/10 02:19:23;;;;;;;66.30;29.63;;;;;;;;;;5040664;28;20059;-71
2022/12/10 02:21:51;;;;;;;68.50;27.80;;;;;;;;;;5039204;28;20543;-71
2022/12/10 02:24:20;;;;;;;71.28;28.35;;;;;;;;;;5040583;28;20056;-71
2022/12/10 02:26:50;;;;;;;72.78;31.02;;;;;;;;;;5058507;28;20048;-71
2022/12/10 02:29:18;;;;;;;79.15;32.75;;;;;;;;;;5043487;28;20122;-71
2022/12/10 02:32:03;;;;;;;72.88;30.63;;;;;;;;;;5036836;28;20064;-70
2022/12/10 02:34:30;;;;;;;60.33;26.27;;;;;;;;;;5040936;28;20657;-70
2022/12/10 02:36:58;;;;;;;76.20;29.45;;;;;;;;;;5054021;28;20045;-70
2022/12/10 02:39:30;;;;;;;70.35;30.25;;;;;;;;;;5056777;28;20060;-70
2022/12/10 02:41:57;;;;;;;68.75;31.58;;;;;;;;;;5034010;28;20056;-69
2022/12/10 02:44:24;;;;;;;71.60;32.42;;;;;;;;;;5051569;28;20066;-70
2022/12/10 02:46:52;;;;;;;72.75;32.45;;;;;;;;;;5055380;28;20041;-69
2022/12/10 02:49:18;;;;;;;75.25;31.02;;;;;;;;;;5039834;28;20067;-70
2022/12/10 02:51:44;;;;;;;79.13;34.25;;;;;;;;;;5037855;28;20139;-70
2022/12/10 02:54:29;;;;;;;79.80;33.65;;;;;;;;;;5055973;28;20036;-70
2022/12/10 02:56:59;;;;;;;67.57;29.80;;;;;;;;;;5056146;28;21830;-70
2022/12/10 02:59:25;;;;;;;75.93;33.78;;;;;;;;;;5037458;28;20060;-70
2022/12/10 03:01:58;;;;;;;78.72;34.25;;;;;;;;;;5054899;28;20055;-69
2022/12/10 03:04:47;;;;;;;71.90;31.63;;;;;;;;;;5026302;28;20052;-70
2022/12/10 03:07:22;;;;;;;80.18;33.45;;;;;;;;;;5011222;28;20788;-69
2022/12/10 03:09:50;;;;;;;78.47;34.75;;;;;;;;;;5037048;28;20055;-70
2022/12/10 03:12:23;;;;;;;71.25;31.30;;;;;;;;;;5056058;28;20040;-69
2022/12/10 03:14:49;;;;;;;64.95;28.70;;;;;;;;;;5057374;28;20127;-69
2022/12/10 03:17:15;;;;;;;72.07;30.88;;;;;;;;;;5036552;28;20112;-69
2022/12/10 03:19:46;;;;;;;61.92;27.52;;;;;;;;;;5036523;28;20040;-69
2022/12/10 03:22:14;;;;;;;74.47;35.10;;;;;;;;;;5057684;28;20145;-69
2022/12/10 03:24:41;;;;;;;70.07;30.73;;;;;;;;;;5023918;28;20110;-69
2022/12/10 03:27:09;;;;;;;77.18;32.28;;;;;;;;;;5027995;28;20669;-70
2022/12/10 03:29:38;;;;;;;80.13;36.17;;;;;;;;;;5057694;28;20651;-69
2022/12/10 03:32:04;;;;;;;78.10;35.10;;;;;;;;;;5059664;28;20086;-70
2022/12/10 03:34:30;;;;;;;76.63;34.05;;;;;;;;;;5040821;28;20052;-69
2022/12/10 03:36:57;;;;;;;80.90;35.78;;;;;;;;;;5057933;28;20611;-69
2022/12/10 03:39:24;;;;;;;77.80;35.28;;;;;;;;;;5039858;28;20058;-69
2022/12/10 03:41:50;;;;;;;79.75;35.60;;;;;;;;;;5022995;28;20048;-69
2022/12/10 03:44:27;;;;;;;75.85;33.25;;;;;;;;;;5060093;28;20135;-69
2022/12/10 03:46:53;;;;;;;74.55;34.17;;;;;;;;;;5021089;28;20291;-69
2022/12/10 03:49:19;;;;;;;73.55;32.55;;;;;;;;;;5058937;28;20044;-69
2022/12/10 03:51:45;;;;;;;68.95;29.13;;;;;;;;;;5057443;28;20060;-69
2022/12/10 03:54:11;;;;;;;69.40;32.10;;;;;;;;;;5054282;28;20385;-69
2022/12/10 03:56:37;;;;;;;76.22;33.70;;;;;;;;;;5036358;28;20052;-69
2022/12/10 03:59:03;;;;;;;80.38;35.55;;;;;;;;;;5057096;28;20056;-69
2022/12/10 04:01:29;;;;;;;73.18;32.83;;;;;;;;;;5058099;28;20071;-69
2022/12/10 04:03:55;;;;;;;79.75;34.40;;;;;;;;;;5054506;28;20123;-69
2022/12/10 04:06:21;;;;;;;82.38;34.35;;;;;;;;;;5058778;28;20112;-69
2022/12/10 04:08:48;;;;;;;75.28;36.00;;;;;;;;;;5036938;28;20063;-69
2022/12/10 04:11:14;;;;;;;76.28;34.25;;;;;;;;;;5054939;28;20960;-69
2022/12/10 04:16:26;;;;;;;79.38;34.03;;;;;;;;;;5033526;28;20083;-69
2022/12/10 04:18:52;;;;;;;75.60;34.55;;;;;;;;;;5058103;28;20110;-69
2022/12/10 04:26:55;;;;;;;78.15;36.47;;;;;;;;;;5058253;28;20044;-69
2022/12/10 04:29:25;;;;;;;76.03;32.22;;;;;;;;;;5039342;28;20052;-69
2022/12/10 04:31:51;;;;;;;77.25;35.60;;;;;;;;;;5041018;28;20059;-69
2022/12/10 04:34:17;;;;;;;79.20;35.28;;;;;;;;;;5042177;28;20044;-69
2022/12/10 04:36:44;;;;;;;81.40;33.88;;;;;;;;;;5057053;28;20056;-69
2022/12/10 04:39:11;;;;;;;79.80;34.17;;;;;;;;;;5054543;28;20749;-69
2022/12/10 04:41:39;;;;;;;74.00;32.13;;;;;;;;;;5053196;28;20059;-69
2022/12/10 04:44:05;;;;;;;76.10;35.83;;;;;;;;;;5038412;28;20043;-69
2022/12/10 04:46:31;;;;;;;71.90;32.05;;;;;;;;;;5038563;28;20043;-69
2022/12/10 04:48:57;;;;;;;81.97;35.75;;;;;;;;;;5056482;28;20199;-69
2022/12/10 04:51:23;;;;;;;77.15;34.60;;;;;;;;;;5033788;28;20063;-69
2022/12/10 04:53:49;;;;;;;75.50;33.60;;;;;;;;;;5040884;28;20428;-69
2022/12/10 04:56:15;;;;;;;78.75;36.22;;;;;;;;;;5042780;28;20068;-68
2022/12/10 04:58:42;;;;;;;74.10;32.80;;;;;;;;;;5052007;28;20082;-69
2022/12/10 05:01:09;;;;;;;83.55;34.22;;;;;;;;;;5061457;28;20048;-69
2022/12/10 05:03:35;;;;;;;80.65;36.10;;;;;;;;;;5044921;28;20864;-69
2022/12/10 05:06:02;;;;;;;77.20;34.22;;;;;;;;;;5041593;28;20161;-69
2022/12/10 05:08:28;;;;;;;81.57;34.17;;;;;;;;;;5062355;28;20048;-69
2022/12/10 05:10:54;;;;;;;80.50;36.03;;;;;;;;;;5026273;28;20052;-69
2022/12/10 05:13:20;;;;;;;87.57;36.47;;;;;;;;;;5061289;28;20047;-69
2022/12/10 05:15:46;;;;;;;88.13;36.45;;;;;;;;;;5041789;28;20121;-69
2022/12/10 05:18:12;;;;;;;84.55;36.28;;;;;;;;;;5063964;28;20125;-69
2022/12/10 05:20:39;;;;;;;80.28;35.30;;;;;;;;;;5064847;28;21004;-69
2022/12/10 05:25:57;;;;;;;79.15;35.65;;;;;;;;;;5061892;28;20071;-69
2022/12/10 05:28:23;;;;;;;80.88;35.03;;;;;;;;;;5045455;28;20055;-69
2022/12/10 05:30:49;;;;;;;84.43;35.17;;;;;;;;;;5027751;28;21159;-68
2022/12/10 05:33:16;;;;;;;84.88;37.28;;;;;;;;;;5048082;28;20045;-69
2022/12/10 05:35:42;;;;;;;79.93;33.72;;;;;;;;;;5060983;28;20048;-69
2022/12/10 05:38:10;;;;;;;85.55;35.88;;;;;;;;;;5061970;28;20125;-69
2022/12/10 05:40:36;;;;;;;92.53;37.88;;;;;;;;;;5060942;28;20056;-69
2022/12/10 05:43:02;;;;;;;87.63;36.75;;;;;;;;;;5056176;28;20048;-69
2022/12/10 05:45:29;;;;;;;86.50;36.13;;;;;;;;;;5062874;28;20075;-68
2022/12/10 05:47:55;;;;;;;79.75;34.67;;;;;;;;;;5062158;28;20053;-69
2022/12/10 05:50:21;;;;;;;91.82;37.80;;;;;;;;;;5064350;28;20044;-68
2022/12/10 05:52:47;;;;;;;92.65;39.70;;;;;;;;;;5063498;28;20044;-68
2022/12/10 05:55:13;;;;;;;91.63;39.40;;;;;;;;;;5060798;28;20056;-69
2022/12/10 05:57:39;;;;;;;85.53;36.08;;;;;;;;;;5042989;28;20049;-69
2022/12/10 06:00:05;;;;;;;95.32;38.78;;;;;;;;;;5020188;28;20071;-68
2022/12/10 06:02:35;;;;;;;94.82;38.80;;;;;;;;;;5045287;28;20588;-68
2022/12/10 06:05:01;;;;;;;99.13;40.38;;;;;;;;;;5045100;28;20052;-68
2022/12/10 06:07:27;;;;;;;107.53;42.97;;;;;;;;;;5043057;28;20510;-74
2022/12/10 06:09:53;;;;;;;102.20;41.70;;;;;;;;;;5039940;28;20055;-75
2022/12/10 06:12:19;;;;;;;95.82;40.55;;;;;;;;;;5019783;28;20109;-75
2022/12/10 06:14:45;;;;;;;99.75;38.42;;;;;;;;;;5040816;28;20516;-75
2022/12/10 06:17:11;;;;;;;94.63;39.22;;;;;;;;;;5039175;28;20416;-75
2022/12/10 06:19:37;;;;;;;99.45;41.78;;;;;;;;;;5008171;28;20912;-75
2022/12/10 06:22:03;;;;;;;100.88;40.35;;;;;;;;;;5022304;28;20530;-75
2022/12/10 06:24:29;;;;;;;92.30;38.33;;;;;;;;;;5022887;28;20044;-75
2022/12/10 06:26:55;;;;;;;110.10;45.17;;;;;;;;;;5040148;28;20063;-75
2022/12/10 06:29:21;;;;;;;108.22;44.60;;;;;;;;;;5040164;28;20048;-75
2022/12/10 06:31:47;;;;;;;118.68;47.00;;;;;;;;;;4994526;28;20055;-75
2022/12/10 06:34:13;;;;;;;110.57;45.45;;;;;;;;;;5010995;28;20205;-75
2022/12/10 06:36:39;;;;;;;115.03;45.67;;;;;;;;;;5040479;28;20417;-74
2022/12/10 06:39:06;;;;;;;103.30;41.90;;;;;;;;;;5021177;28;20052;-74
2022/12/10 06:41:32;;;;;;;116.60;48.20;;;;;;;;;;5038394;28;20048;-74
2022/12/10 06:43:58;;;;;;;112.45;44.90;;;;;;;;;;5018333;28;20080;-75
2022/12/10 06:46:25;;;;;;;114.13;43.15;;;;;;;;;;5009052;28;20958;-75
2022/12/10 06:48:51;;;;;;;102.43;41.35;;;;;;;;;;5034783;28;20049;-75
2022/12/10 06:51:17;;;;;;;106.47;42.88;;;;;;;;;;5019454;28;20060;-74
2022/12/10 06:53:44;;;;;;;114.15;44.67;;;;;;;;;;5022513;28;20048;-75
2022/12/10 06:56:14;;;;;;;101.20;39.25;;;;;;;;;;5015619;28;20041;-75
2022/12/10 06:58:41;;;;;;;103.30;42.90;;;;;;;;;;5018473;28;20136;-75
2022/12/10 07:01:11;;;;;;;101.00;43.88;;;;;;;;;;5018743;28;20064;-75
2022/12/10 07:03:37;;;;;;;96.03;39.25;;;;;;;;;;5037242;28;20063;-74
2022/12/10 07:06:04;;;;;;;80.22;31.65;;;;;;;;;;5031513;28;20175;-75
2022/12/10 07:08:30;;;;;;;93.22;40.08;;;;;;;;;;5030903;28;20211;-75
2022/12/10 07:10:56;;;;;;;98.70;40.47;;;;;;;;;;5021030;28;20049;-75
2022/12/10 07:13:23;;;;;;;103.18;44.92;;;;;;;;;;5036623;28;20080;-75
2022/12/10 07:15:49;;;;;;;96.47;39.13;;;;;;;;;;5031792;28;20047;-75
2022/12/10 07:18:15;;;;;;;112.75;44.53;;;;;;;;;;5030059;28;20066;-75
2022/12/10 07:20:41;;;;;;;108.97;45.10;;;;;;;;;;5054113;28;20044;-75
2022/12/10 07:23:07;;;;;;;102.20;44.72;;;;;;;;;;5038313;28;20051;-76
2022/12/10 07:25:33;;;;;;;109.38;44.88;;;;;;;;;;5054653;28;20055;-75
2022/12/10 07:27:59;;;;;;;118.32;48.80;;;;;;;;;;5058086;28;20159;-75
2022/12/10 07:30:25;;;;;;;112.95;46.97;;;;;;;;;;5029507;28;20159;-76
2022/12/10 07:32:52;;;;;;;109.88;47.55;;;;;;;;;;5057027;28;20056;-76
2022/12/10 07:35:18;;;;;;;109.75;45.42;;;;;;;;;;5025992;28;20461;-76
2022/12/10 07:37:44;;;;;;;112.63;45.45;;;;;;;;;;5039671;28;20368;-76
2022/12/10 07:40:10;;;;;;;109.55;46.08;;;;;;;;;;5045004;28;20060;-76
2022/12/10 07:42:36;;;;;;;110.43;45.03;;;;;;;;;;5038778;28;20051;-76
2022/12/10 07:45:03;;;;;;;114.05;45.67;;;;;;;;;;5023946;28;20679;-76
2022/12/10 07:47:29;;;;;;;105.18;43.88;;;;;;;;;;5042798;28;20109;-76
2022/12/10 07:49:55;;;;;;;106.57;44.65;;;;;;;;;;5038816;28;20140;-76
2022/12/10 07:52:21;;;;;;;113.38;44.15;;;;;;;;;;5036744;28;20063;-76
2022/12/10 07:54:47;;;;;;;113.60;46.92;;;;;;;;;;5038685;28;20361;-76
2022/12/10 07:57:15;;;;;;;116.25;45.88;;;;;;;;;;5056523;28;20194;-76
2022/12/10 07:59:41;;;;;;;99.18;37.08;;;;;;;;;;5021375;28;20113;-76
2022/12/10 08:02:08;;;;;;;111.20;46.67;;;;;;;;;;5036878;28;20048;-76
2022/12/10 08:04:34;;;;;;;93.60;38.90;;;;;;;;;;5036219;28;21314;-77
2022/12/10 08:07:00;;;;;;;100.72;40.58;;;;;;;;;;5055544;28;20110;-75
2022/12/10 08:09:26;;;;;;;106.13;39.83;;;;;;;;;;5037458;28;20067;-76
2022/12/10 08:11:53;;;;;;;112.85;43.15;;;;;;;;;;5037259;28;20056;-75
2022/12/10 08:14:19;;;;;;;118.88;46.92;;;;;;;;;;5036751;28;20056;-76
2022/12/10 08:16:45;;;;;;;88.03;35.03;;;;;;;;;;5035994;28;20052;-75
2022/12/10 08:19:11;;;;;;;99.95;39.88;;;;;;;;;;5025478;28;20044;-76
2022/12/10 08:21:37;;;;;;;110.25;43.20;;;;;;;;;;5026316;28;20756;-75
2022/12/10 08:24:03;;;;;;;112.03;42.38;;;;;;;;;;5036758;28;20048;-75
2022/12/10 08:26:31;;;;;;;108.25;43.22;;;;;;;;;;5036175;28;20482;-76
2022/12/10 08:28:57;;;;;;;112.57;42.78;;;;;;;;;;5037412;28;22339;-76
2022/12/10 08:31:24;;;;;;;91.82;37.90;;;;;;;;;;5033641;28;20125;-76
2022/12/10 08:33:50;;;;;;;79.88;30.73;;;;;;;;;;5033757;28;20052;-75
2022/12/10 08:36:16;;;;;;;99.72;38.53;;;;;;;;;;5040174;28;20083;-77
2022/12/10 08:38:43;;;;;;;101.93;40.92;;;;;;;;;;5052894;28;20051;-76
2022/12/10 08:41:10;;;;;;;107.75;44.08;;;;;;;;;;5052630;28;20063;-76
2022/12/10 08:43:36;;;;;;;113.53;44.85;;;;;;;;;;5036399;28;20062;-75
2022/12/10 08:46:02;;;;;;;109.07;47.03;;;;;;;;;;5019088;28;20052;-76
2022/12/10 08:48:28;;;;;;;106.35;42.83;;;;;;;;;;5054369;28;20436;-76
2022/12/10 08:50:54;;;;;;;101.32;43.72;;;;;;;;;;5055135;28;20111;-75
2022/12/10 08:53:20;;;;;;;103.70;42.47;;;;;;;;;;5056756;28;20512;-76
2022/12/10 08:55:49;;;;;;;105.50;41.67;;;;;;;;;;5020114;28;20090;-76
2022/12/10 08:58:15;;;;;;;81.00;31.65;;;;;;;;;;5037089;28;20100;-76
2022/12/10 09:00:41;;;;;;;108.53;43.78;;;;;;;;;;5028878;28;20052;-75
2022/12/10 09:03:08;;;;;;;93.35;37.55;;;;;;;;;;5040682;28;20441;-75
2022/12/10 09:05:35;;;;;;;105.22;42.63;;;;;;;;;;5001330;28;20136;-75
2022/12/10 09:08:01;;;;;;;108.35;40.65;;;;;;;;;;5028941;28;20082;-76
2022/12/10 09:10:27;;;;;;;100.63;42.47;;;;;;;;;;5029573;28;20048;-76
2022/12/10 09:12:53;;;;;;;111.47;43.05;;;;;;;;;;5023471;28;20051;-75
2022/12/10 09:15:20;;;;;;;104.07;40.13;;;;;;;;;;5021440;28;20048;-75
2022/12/10 09:17:46;;;;;;;105.47;43.38;;;;;;;;;;5031362;28;20061;-76
2022/12/10 09:20:12;;;;;;;104.78;40.38;;;;;;;;;;5021971;28;20052;-75
2022/12/10 09:22:39;;;;;;;101.40;44.20;;;;;;;;;;5036734;28;20535;-76
2022/12/10 09:25:05;;;;;;;102.85;37.53;;;;;;;;;;5018214;28;20098;-76
2022/12/10 09:27:32;;;;;;;109.65;42.17;;;;;;;;;;5037200;28;20052;-77
2022/12/10 09:29:58;;;;;;;92.88;38.10;;;;;;;;;;5013435;28;20044;-76
2022/12/10 09:32:24;;;;;;;101.97;39.95;;;;;;;;;;5035980;28;20037;-76
2022/12/10 09:34:54;;;;;;;111.32;42.35;;;;;;;;;;5006952;28;20165;-76
2022/12/10 09:37:20;;;;;;;106.57;38.65;;;;;;;;;;5031936;28;20101;-75
2022/12/10 09:39:46;;;;;;;119.40;44.58;;;;;;;;;;5017401;28;20771;-76
2022/12/10 09:42:24;;;;;;;112.57;40.05;;;;;;;;;;4996610;28;20057;-77
2022/12/10 09:45:09;;;;;;;108.97;40.47;;;;;;;;;;5021796;28;20053;-76
2022/12/10 09:48:05;;;;;;;123.22;46.75;;;;;;;;;;5019087;28;20157;-76
2022/12/10 09:50:38;;;;;;;98.63;34.13;;;;;;;;;;4997538;28;20633;-77
2022/12/10 09:53:05;;;;;;;119.88;42.00;;;;;;;;;;5016591;28;20041;-76
2022/12/10 09:55:42;;;;;;;117.53;39.67;;;;;;;;;;5018490;28;20059;-77
2022/12/10 09:58:12;;;;;;;114.55;42.67;;;;;;;;;;5024575;28;20135;-76
2022/12/10 10:00:39;;;;;;;118.90;43.47;;;;;;;;;;5016096;28;20056;-76
2022/12/10 10:03:06;;;;;;;124.35;44.47;;;;;;;;;;5040523;28;20059;-76
2022/12/10 10:05:41;;;;;;;98.10;37.33;;;;;;;;;;5037597;28;20052;-70
2022/12/10 10:08:12;;;;;;;115.13;43.45;;;;;;;;;;5019867;28;20080;-77
2022/12/10 10:10:42;;;;;;;126.68;45.80;;;;;;;;;;5031368;28;20111;-77
2022/12/10 10:13:08;;;;;;;130.30;45.92;;;;;;;;;;5033640;28;20131;-77
2022/12/10 10:15:40;;;;;;;121.93;43.30;;;;;;;;;;5035530;28;20048;-77
2022/12/10 10:18:14;;;;;;;123.50;45.03;;;;;;;;;;5034895;28;20055;-75
2022/12/10 10:20:41;;;;;;;132.63;45.15;;;;;;;;;;5030498;28;20470;-77
2022/12/10 10:23:07;;;;;;;127.40;45.88;;;;;;;;;;5052138;28;20126;-75
2022/12/10 10:25:33;;;;;;;86.90;29.85;;;;;;;;;;5035847;28;20071;-74
2022/12/10 10:27:59;;;;;;;114.85;41.28;;;;;;;;;;5033385;28;20547;-75
2022/12/10 10:30:25;;;;;;;119.00;40.72;;;;;;;;;;5034072;28;20048;-70
2022/12/10 10:32:53;;;;;;;122.95;43.00;;;;;;;;;;5050331;28;20047;-69
2022/12/10 10:35:24;;;;;;;114.38;42.50;;;;;;;;;;5016466;28;20074;-70
2022/12/10 10:37:50;;;;;;;109.68;40.63;;;;;;;;;;5028658;28;20076;-70
2022/12/10 10:40:27;;;;;;;120.00;42.20;;;;;;;;;;5020720;28;20059;-69
2022/12/10 10:42:55;;;;;;;118.18;42.25;;;;;;;;;;5030687;28;20063;-69
2022/12/10 10:45:30;;;;;;;128.73;46.20;;;;;;;;;;5054883;28;20413;-72
2022/12/10 10:48:07;;;;;;;129.77;47.33;;;;;;;;;;5031239;28;20059;-71
2022/12/10 10:50:37;;;;;;;131.25;46.72;;;;;;;;;;5051844;28;21869;-72
2022/12/10 10:53:20;;;;;;;117.63;43.38;;;;;;;;;;5033618;28;20076;-72
2022/12/10 10:55:46;;;;;;;105.40;37.30;;;;;;;;;;5052579;28;20036;-70
2022/12/10 10:58:19;;;;;;;112.30;40.90;;;;;;;;;;5052344;28;20059;-76
2022/12/10 11:00:56;;;;;;;98.32;39.13;;;;;;;;;;5032581;28;21731;-72
2022/12/10 11:03:22;;;;;;;118.00;44.78;;;;;;;;;;5033639;28;20068;-70
2022/12/10 11:05:48;;;;;;;105.45;37.28;;;;;;;;;;5026026;28;20067;-71
2022/12/10 11:08:18;;;;;;;102.32;38.33;;;;;;;;;;5020557;28;20052;-71
2022/12/10 11:10:49;;;;;;;117.60;42.70;;;;;;;;;;5032801;28;20083;-71
2022/12/10 11:13:28;;;;;;;105.03;39.35;;;;;;;;;;5051246;28;20177;-71
2022/12/10 11:16:00;;;;;;;114.57;43.88;;;;;;;;;;5032014;28;20059;-72
2022/12/10 11:18:30;;;;;;;110.13;42.55;;;;;;;;;;5026534;28;20074;-78
2022/12/10 11:21:22;;;;;;;109.70;43.33;;;;;;;;;;5031319;28;20063;-79
2022/12/10 11:23:52;;;;;;;106.43;43.95;;;;;;;;;;4993384;28;20083;-77
2022/12/10 11:26:29;;;;;;;107.13;38.88;;;;;;;;;;5016672;28;20052;-72
2022/12/10 11:29:14;;;;;;;116.85;43.63;;;;;;;;;;5030533;28;20924;-72
2022/12/10 11:31:51;;;;;;;106.22;41.75;;;;;;;;;;5040972;28;20048;-72
2022/12/10 11:34:22;;;;;;;108.53;44.72;;;;;;;;;;5030203;28;20056;-72
2022/12/10 11:36:48;;;;;;;121.32;44.95;;;;;;;;;;5059450;28;20109;-72
2022/12/10 11:39:21;;;;;;;109.72;42.88;;;;;;;;;;5042793;28;20105;-71
2022/12/10 11:41:50;;;;;;;104.90;44.63;;;;;;;;;;5061572;28;20043;-71
2022/12/10 11:44:34;;;;;;;109.50;44.85;;;;;;;;;;5042137;28;20063;-73
2022/12/10 11:47:00;;;;;;;;;;;;;;;;;;5043985;28;20062;-78
2022/12/10 11:49:39;;;;;;;97.07;37.95;;;;;;;;;;5061459;28;20004;-72
2022/12/10 11:52:05;;;;;;;116.05;43.47;;;;;;;;;;5060605;28;20042;-73
2022/12/10 11:54:45;;;;;;;106.18;41.53;;;;;;;;;;5055532;28;20086;-73
2022/12/10 11:57:17;;;;;;;104.50;41.97;;;;;;;;;;5061214;28;20230;-72
2022/12/10 12:00:02;;;;;;;95.57;38.85;;;;;;;;;;5042048;28;20170;-77
2022/12/10 12:02:37;;;;;;;102.38;42.85;;;;;;;;;;5044649;28;20430;-73
2022/12/10 12:05:10;;;;;;;107.03;43.55;;;;;;;;;;5051479;28;20100;-77
2022/12/10 12:07:41;;;;;;;97.47;40.42;;;;;;;;;;5060720;28;20517;-77
2022/12/10 12:10:26;;;;;;;99.28;39.83;;;;;;;;;;5062514;28;20060;-73
2022/12/10 12:13:11;;;;;;;102.25;40.42;;;;;;;;;;5027446;28;20059;-76
2022/12/10 12:15:46;;;;;;;92.82;41.25;;;;;;;;;;5062493;28;20085;-78
2022/12/10 12:18:16;;;;;;;101.40;44.00;;;;;;;;;;5061189;28;20187;-78
2022/12/10 12:21:01;;;;;;;98.57;42.17;;;;;;;;;;5051724;28;20059;-72
2022/12/10 12:23:54;;;;;;;97.78;42.30;;;;;;;;;;5061913;28;20078;-72
2022/12/10 12:26:29;;;;;;;96.38;39.03;;;;;;;;;;5038762;28;21898;-72
2022/12/10 12:29:06;;;;;;;97.70;38.30;;;;;;;;;;5060792;28;20048;-73
2022/12/10 12:31:37;;;;;;;94.57;40.05;;;;;;;;;;5034855;28;20538;-73
2022/12/10 12:34:18;;;;;;;91.15;38.13;;;;;;;;;;5042334;28;20150;-73
2022/12/10 12:36:45;;;;;;;97.35;38.58;;;;;;;;;;5041503;28;20074;-77
2022/12/10 12:39:24;;;;;;;94.55;41.20;;;;;;;;;;5059862;28;20091;-78
2022/12/10 12:42:09;;;;;;;83.53;34.80;;;;;;;;;;5041602;28;20083;-71
2022/12/10 12:44:35;;;;;;;90.15;36.10;;;;;;;;;;5060485;28;20047;-73
2022/12/10 12:47:23;;;;;;;67.78;28.27;;;;;;;;;;5059218;28;20056;-73
2022/12/10 12:49:49;;;;;;;94.82;38.42;;;;;;;;;;5025980;28;20508;-73
2022/12/10 12:52:34;;;;;;;96.10;38.15;;;;;;;;;;5041414;28;20048;-74
2022/12/10 12:55:03;;;;;;;92.63;38.45;;;;;;;;;;5060682;28;20082;-78
2022/12/10 12:57:47;;;;;;;91.47;37.97;;;;;;;;;;5042439;28;20147;-78
2022/12/10 13:00:19;;;;;;;69.43;28.52;;;;;;;;;;5040295;28;20057;-73
2022/12/10 13:02:45;;;;;;;82.10;35.45;;;;;;;;;;5058881;28;20556;-72
2022/12/10 13:05:17;;;;;;;91.70;38.47;;;;;;;;;;5042643;28;20059;-73
2022/12/10 13:07:43;;;;;;;93.32;38.30;;;;;;;;;;5040925;28;20186;-73
2022/12/10 13:10:17;;;;;;;98.95;38.83;;;;;;;;;;5059642;28;20138;-72
2022/12/10 13:13:03;;;;;;;96.22;39.20;;;;;;;;;;5034896;28;20466;-72
2022/12/10 13:15:34;;;;;;;97.80;38.25;;;;;;;;;;5060774;28;20048;-73
2022/12/10 13:18:02;;;;;;;87.70;35.33;;;;;;;;;;5049481;28;20066;-73
2022/12/10 13:20:29;;;;;;;111.15;40.25;;;;;;;;;;5063296;28;20583;-79
2022/12/10 13:22:59;;;;;;;101.32;36.53;;;;;;;;;;5065099;28;20062;-73
2022/12/10 13:25:54;;;;;;;101.15;35.75;;;;;;;;;;5045217;28;20048;-72
2022/12/10 13:28:28;;;;;;;86.85;33.90;;;;;;;;;;5047924;28;20875;-79
2022/12/10 13:30:54;;;;;;;;;;;;;;;;;;5063867;28;20056;-72
2022/12/10 13:33:20;;;;;;;100.15;35.58;;;;;;;;;;5047237;28;19927;-72
2022/12/10 13:36:04;;;;;;;106.57;37.22;;;;;;;;;;5064183;28;20044;-73
2022/12/10 13:38:39;;;;;;;98.50;37.35;;;;;;;;;;5064150;28;20052;-73
2022/12/10 13:46:58;;;;;;;144.35;41.55;;;;;;;;;;5062329;28;20044;-73
2022/12/10 13:49:29;;;;;;;68.05;24.15;;;;;;;;;;5060798;28;20052;-71
2022/12/10 13:52:00;;;;;;;105.00;37.85;;;;;;;;;;5045875;28;20053;-71
2022/12/10 13:54:32;;;;;;;118.82;39.25;;;;;;;;;;5053933;28;20055;-71
2022/12/10 13:57:04;;;;;;;103.88;37.13;;;;;;;;;;5044207;28;20045;-71
2022/12/10 13:59:41;;;;;;;131.07;41.60;;;;;;;;;;5061234;28;20138;-71
2022/12/10 14:02:22;;;;;;;122.75;42.30;;;;;;;;;;5044602;28;20056;-71
2022/12/10 14:05:07;;;;;;;141.88;41.20;;;;;;;;;;5063220;28;20131;-71
2022/12/10 14:07:34;;;;;;;115.03;38.35;;;;;;;;;;5043276;28;20045;-71
2022/12/10 14:10:01;;;;;;;118.18;37.28;;;;;;;;;;5046341;28;20541;-71
2022/12/10 14:12:27;;;;;;;106.45;34.55;;;;;;;;;;5062203;28;20063;-71
2022/12/10 14:14:59;;;;;;;150.50;38.97;;;;;;;;;;5063749;28;20728;-71
2022/12/10 14:17:31;;;;;;;110.25;35.83;;;;;;;;;;5028287;28;20057;-71
2022/12/10 14:19:57;;;;;;;94.05;27.95;;;;;;;;;;5045302;28;20063;-71
2022/12/10 14:22:31;;;;;;;121.35;33.65;;;;;;;;;;5062555;28;20068;-71
2022/12/10 14:24:59;;;;;;;107.47;35.30;;;;;;;;;;5062852;28;20045;-71
2022/12/10 14:27:26;;;;;;;97.68;34.78;;;;;;;;;;5035172;28;20408;-71
2022/12/10 14:29:55;;;;;;;84.25;30.13;;;;;;;;;;5023738;28;20954;-71
2022/12/10 14:32:26;;;;;;;102.93;34.00;;;;;;;;;;5061922;28;20048;-71
2022/12/10 14:34:54;;;;;;;93.38;33.10;;;;;;;;;;5062856;28;20067;-71
2022/12/10 14:37:22;;;;;;;107.45;37.55;;;;;;;;;;5061782;28;20097;-71
2022/12/10 14:39:48;;;;;;;86.07;29.98;;;;;;;;;;5047126;28;20044;-71
2022/12/10 14:42:16;;;;;;;108.10;31.40;;;;;;;;;;5045132;28;20059;-71
2022/12/10 14:44:43;;;;;;;111.72;26.95;;;;;;;;;;5052649;28;20045;-71